Time;durP1;ratioP1;P1;durP2;ratioP2;P2;SDS_P1;SDS_P2;PMS_P1;PMS_P2;Temp;Humidity;BMP_temperature;BMP_pressure;BME280_temperature;BME280_humidity;BME280_pressure;Samples;Min_cycle;Max_cycle;Signal;HPM_P1;HPM_P2
2021/03/11 00:00:15;;;;;;;16.05;10.70;;;2.90;99.90;;;;;;4962614;28;20027;-77
2021/03/11 00:02:42;;;;;;;15.25;10.75;;;2.90;99.90;;;;;;4946682;28;20034;-76
2021/03/11 00:05:11;;;;;;;13.93;10.00;;;2.90;99.90;;;;;;4958192;28;20036;-78
2021/03/11 00:07:37;;;;;;;16.80;11.02;;;2.90;99.90;;;;;;4953527;29;20513;-76
2021/03/11 00:10:05;;;;;;;15.48;10.23;;;2.90;99.90;;;;;;4952809;29;20389;-76
2021/03/11 00:12:31;;;;;;;14.77;10.15;;;3.00;99.90;;;;;;4952751;28;20118;-77
2021/03/11 00:14:57;;;;;;;14.40;10.05;;;3.00;99.90;;;;;;4952894;29;20170;-78
2021/03/11 00:17:24;;;;;;;16.30;10.75;;;3.00;99.90;;;;;;4936093;29;20027;-77
2021/03/11 00:19:49;;;;;;;15.85;10.13;;;3.10;99.90;;;;;;4953273;29;20043;-75
2021/03/11 00:22:15;;;;;;;18.20;10.25;;;3.00;99.90;;;;;;4953525;29;20046;-76
2021/03/11 00:24:41;;;;;;;15.68;10.52;;;3.10;99.90;;;;;;4953064;29;20039;-77
2021/03/11 00:27:07;;;;;;;13.18;9.73;;;3.10;99.90;;;;;;4953565;29;20675;-75
2021/03/11 00:29:33;;;;;;;15.43;9.98;;;3.00;99.90;;;;;;4935801;29;20038;-76
2021/03/11 00:31:59;;;;;;;14.80;11.57;;;3.00;99.90;;;;;;4954903;28;20114;-78
2021/03/11 00:34:26;;;;;;;13.13;9.80;;;3.00;99.90;;;;;;4972852;28;20166;-79
2021/03/11 00:36:52;;;;;;;15.07;10.75;;;3.20;99.90;;;;;;4972818;28;20438;-77
2021/03/11 00:39:19;;;;;;;13.80;10.23;;;3.10;99.90;;;;;;4972670;28;20042;-79
2021/03/11 00:41:45;;;;;;;16.98;11.55;;;2.90;99.90;;;;;;4973622;28;20023;-77
2021/03/11 00:44:11;;;;;;;13.60;10.20;;;3.20;99.90;;;;;;4972154;28;20173;-76
2021/03/11 00:46:36;;;;;;;12.68;9.52;;;3.20;99.90;;;;;;4973229;28;20026;-79
2021/03/11 00:49:03;;;;;;;15.32;10.70;;;3.30;99.90;;;;;;4973153;28;20122;-78
2021/03/11 00:51:28;;;;;;;14.57;9.98;;;3.40;99.90;;;;;;4973039;28;20074;-78
2021/03/11 00:53:54;;;;;;;14.85;10.40;;;3.30;99.90;;;;;;4973503;28;20039;-78
2021/03/11 00:56:20;;;;;;;16.52;11.02;;;2.90;99.90;;;;;;4967160;28;20031;-77
2021/03/11 00:58:46;;;;;;;15.43;9.98;;;3.10;99.90;;;;;;4972436;28;20031;-78
2021/03/11 01:01:12;;;;;;;16.50;10.38;;;3.10;99.90;;;;;;4954796;28;20097;-76
2021/03/11 01:03:38;;;;;;;14.93;10.52;;;3.10;99.90;;;;;;4973458;28;20117;-77
2021/03/11 01:06:04;;;;;;;14.60;10.25;;;3.10;99.90;;;;;;4972220;28;20054;-79
2021/03/11 01:08:30;;;;;;;15.18;10.05;;;3.30;99.90;;;;;;4972869;28;20034;-77
2021/03/11 01:10:55;;;;;;;13.63;9.65;;;3.30;99.90;;;;;;4972444;28;20027;-78
2021/03/11 01:13:21;;;;;;;17.65;10.50;;;3.40;99.90;;;;;;4973235;28;20151;-77
2021/03/11 01:15:48;;;;;;;14.00;9.77;;;3.40;99.90;;;;;;4971825;28;20037;-79
2021/03/11 01:18:14;;;;;;;13.77;10.25;;;3.30;99.60;;;;;;4972354;28;20421;-75
2021/03/11 01:20:40;;;;;;;12.93;10.10;;;3.50;99.30;;;;;;4972310;28;20035;-77
2021/03/11 01:23:06;;;;;;;12.68;9.82;;;3.40;98.10;;;;;;4974602;28;20110;-76
2021/03/11 01:25:32;;;;;;;14.05;9.45;;;3.40;98.80;;;;;;4975128;28;20114;-76
2021/03/11 01:27:58;;;;;;;12.95;8.98;;;3.40;99.00;;;;;;4976163;28;20466;-76
2021/03/11 01:30:24;;;;;;;16.17;10.98;;;3.30;99.50;;;;;;4975457;28;20027;-78
2021/03/11 01:32:50;;;;;;;12.95;9.02;;;3.40;99.30;;;;;;4968402;28;20027;-76
2021/03/11 01:35:16;;;;;;;15.43;10.77;;;3.20;98.40;;;;;;4956034;29;20038;-77
2021/03/11 01:37:42;;;;;;;15.07;10.63;;;3.10;99.00;;;;;;4956330;29;20643;-76
2021/03/11 01:40:08;;;;;;;14.13;10.30;;;3.10;98.60;;;;;;4956354;29;20043;-79
2021/03/11 01:42:35;;;;;;;12.23;7.68;;;3.20;97.60;;;;;;4956467;29;20035;-78
2021/03/11 01:45:06;;;;;;;22.33;10.70;;;3.20;97.60;;;;;;4955262;29;20608;-78
2021/03/11 01:47:32;;;;;;;11.27;9.45;;;3.20;97.60;;;;;;4955120;29;20440;-77
2021/03/11 01:49:58;;;;;;;14.70;10.00;;;3.20;97.10;;;;;;4955961;29;20027;-77
2021/03/11 01:52:24;;;;;;;15.13;10.13;;;3.20;97.40;;;;;;4954511;29;20035;-77
2021/03/11 01:54:50;;;;;;;17.42;10.40;;;3.10;96.70;;;;;;4955672;29;20477;-75
2021/03/11 01:57:16;;;;;;;15.05;10.98;;;3.20;97.40;;;;;;4937652;29;20038;-76
2021/03/11 01:59:41;;;;;;;15.25;10.13;;;3.10;97.10;;;;;;4955232;29;20374;-79
2021/03/11 02:02:07;;;;;;;12.30;9.68;;;3.20;97.10;;;;;;4954794;29;20019;-80
2021/03/11 02:04:33;;;;;;;16.27;9.73;;;3.20;97.20;;;;;;4955351;29;20102;-77
2021/03/11 02:06:59;;;;;;;14.93;9.98;;;3.30;96.60;;;;;;4954851;29;20443;-77
2021/03/11 02:09:25;;;;;;;19.50;10.23;;;3.20;96.20;;;;;;4955211;29;20019;-78
2021/03/11 02:12:09;;;;;;;17.85;10.38;;;3.20;95.70;;;;;;4954745;28;20027;-80
2021/03/11 02:14:56;;;;;;;12.55;9.65;;;3.10;95.30;;;;;;4938207;29;20042;-79
2021/03/11 02:17:31;;;;;;;14.23;10.38;;;3.20;94.80;;;;;;4953632;29;20035;-78
2021/03/11 02:20:15;;;;;;;16.10;10.30;;;3.20;94.20;;;;;;4955649;29;20072;-77
2021/03/11 02:23:15;;;;;;;15.23;10.00;;;3.10;94.20;;;;;;4954315;29;20027;-76
2021/03/11 02:26:02;;;;;;;14.68;10.05;;;3.10;94.30;;;;;;4954745;29;20034;-78
2021/03/11 02:28:31;;;;;;;14.25;10.07;;;3.10;94.60;;;;;;4955129;29;20051;-77
2021/03/11 02:30:58;;;;;;;12.45;9.73;;;3.10;94.60;;;;;;4954511;29;20091;-75
2021/03/11 02:33:26;;;;;;;14.98;9.65;;;3.20;93.60;;;;;;4964882;28;20107;-79
2021/03/11 02:35:53;;;;;;;12.18;9.13;;;3.10;93.60;;;;;;4973204;28;20122;-77
2021/03/11 02:38:22;;;;;;;11.43;9.50;;;3.10;93.70;;;;;;4974354;28;20026;-77
2021/03/11 02:40:51;;;;;;;14.50;10.25;;;3.20;94.30;;;;;;4973438;28;20030;-76
2021/03/11 02:43:17;;;;;;;18.23;10.05;;;3.10;94.60;;;;;;4974323;28;20030;-76
2021/03/11 02:45:44;;;;;;;17.27;9.73;;;3.10;93.90;;;;;;4949744;28;710522;-78
2021/03/11 02:48:12;;;;;;;12.85;9.88;;;3.10;93.80;;;;;;4974592;28;20027;-74
2021/03/11 02:50:39;;;;;;;16.45;10.90;;;3.10;94.20;;;;;;4957367;28;20067;-77
2021/03/11 02:53:08;;;;;;;10.02;8.25;;;3.00;93.80;;;;;;4973942;28;20030;-76
2021/03/11 02:55:36;;;;;;;12.55;9.23;;;3.00;94.30;;;;;;4973961;28;20098;-74
2021/03/11 02:58:03;;;;;;;15.00;9.35;;;3.10;94.50;;;;;;4974040;28;20508;-76
2021/03/11 03:00:31;;;;;;;13.77;10.38;;;3.00;94.10;;;;;;4956935;28;20058;-75
2021/03/11 03:02:57;;;;;;;12.27;8.85;;;3.00;94.40;;;;;;4973462;28;20061;-74
2021/03/11 03:05:28;;;;;;;11.48;9.45;;;2.90;95.00;;;;;;4974625;28;20058;-78
2021/03/11 03:07:54;;;;;;;14.65;9.90;;;3.00;94.50;;;;;;4956729;28;20037;-76
2021/03/11 03:10:27;;;;;;;13.05;9.60;;;3.00;94.20;;;;;;4974837;28;20091;-78
2021/03/11 03:12:59;;;;;;;17.35;9.98;;;3.10;94.00;;;;;;4956521;28;20033;-75
2021/03/11 03:15:47;;;;;;;13.15;9.52;;;3.00;94.10;;;;;;4974287;28;20029;-77
2021/03/11 03:18:16;;;;;;;13.10;9.25;;;2.90;93.50;;;;;;4973823;28;20054;-77
2021/03/11 03:20:43;;;;;;;15.18;10.05;;;3.00;93.50;;;;;;4974184;28;20223;-78
2021/03/11 03:23:09;;;;;;;13.88;9.70;;;2.90;93.40;;;;;;4973526;28;20561;-76
2021/03/11 03:25:35;;;;;;;17.80;9.88;;;3.00;92.90;;;;;;4973948;28;20121;-78
2021/03/11 03:28:01;;;;;;;14.10;9.57;;;3.00;92.10;;;;;;4973751;28;20102;-77
2021/03/11 03:30:27;;;;;;;13.52;10.45;;;3.00;92.70;;;;;;4973570;28;20022;-78
2021/03/11 03:32:54;;;;;;;10.88;7.85;;;3.00;92.00;;;;;;4968491;28;20106;-77
2021/03/11 03:35:23;;;;;;;12.27;9.00;;;2.90;92.40;;;;;;4954897;29;20471;-77
2021/03/11 03:37:50;;;;;;;12.07;9.52;;;2.90;92.20;;;;;;4954124;29;20024;-76
2021/03/11 03:40:17;;;;;;;15.60;9.82;;;2.90;92.70;;;;;;4954467;29;20441;-75
2021/03/11 03:42:48;;;;;;;14.75;10.15;;;2.80;93.60;;;;;;4954031;29;20027;-78
2021/03/11 03:45:20;;;;;;;;;;;2.80;93.10;;;;;;4954449;28;20055;-78
2021/03/11 03:47:48;;;;;;;12.45;9.30;;;2.80;93.20;;;;;;4953770;29;19914;-75
2021/03/11 03:50:16;;;;;;;13.88;9.80;;;2.80;93.60;;;;;;4954201;29;20023;-75
2021/03/11 03:52:42;;;;;;;16.58;10.48;;;2.80;94.30;;;;;;4953785;29;20031;-75
2021/03/11 03:55:11;;;;;;;13.38;9.85;;;2.80;93.50;;;;;;4954355;29;20027;-75
2021/03/11 03:57:38;;;;;;;13.90;10.23;;;2.70;94.00;;;;;;4947341;28;20024;-78
2021/03/11 04:00:07;;;;;;;14.65;9.68;;;2.90;94.10;;;;;;4951569;28;20035;-75
2021/03/11 04:02:33;;;;;;;16.73;10.40;;;2.70;93.60;;;;;;4952172;29;20496;-77
2021/03/11 04:05:02;;;;;;;14.05;8.68;;;2.70;93.40;;;;;;4953847;29;20043;-76
2021/03/11 04:07:30;;;;;;;15.73;10.23;;;2.70;93.30;;;;;;4953828;29;20090;-75
2021/03/11 04:09:57;;;;;;;13.38;9.57;;;2.70;93.00;;;;;;4954382;29;20448;-79
2021/03/11 04:12:23;;;;;;;10.80;8.70;;;2.70;92.90;;;;;;4953992;28;20027;-76
2021/03/11 04:14:51;;;;;;;14.52;10.13;;;2.80;92.30;;;;;;4954434;29;20571;-78
2021/03/11 04:17:18;;;;;;;13.25;9.45;;;2.70;92.80;;;;;;4953378;29;20031;-75
2021/03/11 04:19:44;;;;;;;13.98;10.35;;;2.70;92.90;;;;;;4954234;29;20477;-74
2021/03/11 04:22:11;;;;;;;15.25;10.43;;;2.70;92.30;;;;;;4953518;29;20031;-76
2021/03/11 04:24:39;;;;;;;16.42;9.82;;;2.70;92.30;;;;;;4954391;29;20038;-77
2021/03/11 04:27:07;;;;;;;15.02;8.85;;;2.70;92.80;;;;;;4953903;29;20378;-79
2021/03/11 04:29:34;;;;;;;10.68;8.50;;;2.70;92.50;;;;;;4953855;29;20047;-76
2021/03/11 04:32:01;;;;;;;15.05;9.85;;;2.70;92.20;;;;;;4953937;29;20106;-75
2021/03/11 04:34:27;;;;;;;12.75;9.05;;;2.70;91.70;;;;;;4970523;28;20369;-77
2021/03/11 04:36:54;;;;;;;11.43;8.45;;;2.70;91.90;;;;;;4972803;28;20039;-77
2021/03/11 04:39:21;;;;;;;13.63;8.88;;;2.70;91.70;;;;;;4971965;28;20035;-76
2021/03/11 04:41:49;;;;;;;15.32;7.68;;;2.70;91.30;;;;;;4973317;28;20026;-77
2021/03/11 04:44:15;;;;;;;15.02;9.73;;;2.70;91.00;;;;;;4972555;28;20066;-76
2021/03/11 04:46:41;;;;;;;16.25;9.45;;;2.70;90.70;;;;;;4973097;28;20054;-75
2021/03/11 04:49:09;;;;;;;16.05;9.18;;;2.70;90.50;;;;;;4973018;28;20089;-78
2021/03/11 04:51:35;;;;;;;14.43;9.00;;;2.70;90.70;;;;;;4972939;28;20362;-75
2021/03/11 04:54:01;;;;;;;13.15;8.88;;;2.70;90.00;;;;;;4972660;28;20053;-78
2021/03/11 04:56:28;;;;;;;13.50;9.32;;;2.80;90.80;;;;;;4973125;28;20381;-79
2021/03/11 04:58:55;;;;;;;14.70;9.55;;;2.80;90.80;;;;;;4974187;28;20039;-74
2021/03/11 05:01:24;;;;;;;13.77;8.70;;;2.70;91.00;;;;;;4976871;28;20026;-77
2021/03/11 05:03:51;;;;;;;12.93;9.18;;;2.80;90.40;;;;;;4976676;28;20098;-80
2021/03/11 05:06:17;;;;;;;15.43;9.55;;;2.80;90.80;;;;;;4976674;28;20030;-75
2021/03/11 05:08:43;;;;;;;14.82;9.23;;;2.80;90.40;;;;;;4976534;28;20376;-75
2021/03/11 05:11:13;;;;;;;13.82;9.02;;;2.90;90.70;;;;;;4959922;28;20031;-79
2021/03/11 05:13:42;;;;;;;14.90;10.45;;;3.00;90.80;;;;;;4976184;28;20531;-78
2021/03/11 05:16:08;;;;;;;15.13;8.98;;;3.10;90.90;;;;;;4976390;28;20031;-79
2021/03/11 05:18:34;;;;;;;14.60;9.90;;;3.20;90.30;;;;;;4974746;28;20026;-77
2021/03/11 05:21:00;;;;;;;19.90;9.93;;;3.20;90.70;;;;;;4976408;28;20042;-78
2021/03/11 05:23:25;;;;;;;13.60;9.93;;;3.00;90.00;;;;;;4976233;28;20098;-77
2021/03/11 05:25:52;;;;;;;15.93;9.63;;;3.00;88.20;;;;;;4958711;28;20339;-78
2021/03/11 05:28:19;;;;;;;17.00;10.05;;;2.90;89.50;;;;;;4976085;28;20097;-80
2021/03/11 05:30:44;;;;;;;13.85;9.70;;;2.90;89.00;;;;;;4976238;28;20023;-75
2021/03/11 05:33:10;;;;;;;13.15;9.32;;;2.90;89.00;;;;;;4971343;28;20018;-75
2021/03/11 05:35:39;;;;;;;14.23;8.85;;;2.80;87.70;;;;;;4955521;29;20089;-77
2021/03/11 05:38:05;;;;;;;16.05;9.45;;;2.90;87.90;;;;;;4955721;29;20023;-82
2021/03/11 05:40:32;;;;;;;14.68;9.98;;;2.80;87.30;;;;;;4957148;29;20035;-79
2021/03/11 05:42:59;;;;;;;15.68;9.95;;;2.90;88.30;;;;;;4956899;29;20507;-80
2021/03/11 05:45:26;;;;;;;15.82;10.15;;;3.10;88.10;;;;;;4956378;29;20446;-77
2021/03/11 05:47:52;;;;;;;13.70;9.65;;;3.10;85.30;;;;;;4939249;29;20082;-78
2021/03/11 05:50:19;;;;;;;13.70;8.82;;;3.10;86.60;;;;;;4956220;29;20062;-76
2021/03/11 05:52:46;;;;;;;11.93;9.10;;;3.20;86.30;;;;;;4955176;29;20645;-78
2021/03/11 05:55:12;;;;;;;12.13;8.13;;;3.30;86.10;;;;;;4954739;29;20027;-76
2021/03/11 05:57:39;;;;;;;16.40;10.27;;;3.00;84.40;;;;;;4956027;29;20438;-77
2021/03/11 06:00:07;;;;;;;13.48;9.27;;;3.10;86.70;;;;;;4938382;29;20665;-76
2021/03/11 06:02:33;;;;;;;11.65;8.60;;;3.00;85.20;;;;;;4956116;29;20389;-77
2021/03/11 06:04:59;;;;;;;14.63;9.88;;;3.10;84.40;;;;;;4956235;29;20027;-79
2021/03/11 06:07:25;;;;;;;13.27;8.88;;;3.30;85.80;;;;;;4955882;29;20134;-79
2021/03/11 06:10:03;;;;;;;12.18;9.45;;;3.10;84.60;;;;;;4954228;28;20556;-76
2021/03/11 06:12:30;;;;;;;14.52;9.40;;;3.10;84.60;;;;;;4955718;28;20381;-78
2021/03/11 06:15:20;;;;;;;13.70;10.30;;;3.20;84.80;;;;;;4955467;29;20114;-77
2021/03/11 06:17:47;;;;;;;19.67;11.88;;;3.20;84.80;;;;;;4955209;29;20031;-76
2021/03/11 06:20:13;;;;;;;39.47;21.35;;;3.80;87.30;;;;;;4955108;29;20061;-80
2021/03/11 06:22:39;;;;;;;13.77;9.18;;;4.70;90.20;;;;;;4955935;29;20121;-78
2021/03/11 06:25:07;;;;;;;15.70;9.93;;;3.60;80.40;;;;;;4955348;29;20438;-77
2021/03/11 06:27:33;;;;;;;27.45;12.82;;;3.40;84.30;;;;;;4946195;28;20022;-77
2021/03/11 06:29:59;;;;;;;22.65;13.25;;;3.70;87.50;;;;;;4974110;28;20070;-75
2021/03/11 06:32:25;;;;;;;23.52;14.73;;;3.90;85.70;;;;;;4972271;28;20023;-77
2021/03/11 06:34:51;;;;;;;30.13;15.35;;;4.50;85.60;;;;;;4954489;29;20787;-80
2021/03/11 06:37:42;;;;;;;19.15;10.20;;;4.70;77.90;;;;;;4955220;29;20035;-78
2021/03/11 06:40:18;;;;;;;12.98;9.48;;;4.00;80.20;;;;;;4954779;29;20035;-78
2021/03/11 06:42:45;;;;;;;14.15;9.55;;;3.80;80.60;;;;;;4954899;29;20023;-79
2021/03/11 06:45:22;;;;;;;15.57;10.32;;;3.90;82.10;;;;;;4953054;29;20047;-79
2021/03/11 06:47:50;;;;;;;13.30;9.80;;;4.00;82.20;;;;;;4954489;29;20020;-78
2021/03/11 06:50:16;;;;;;;16.27;10.50;;;4.10;79.80;;;;;;4955019;29;20039;-75
2021/03/11 06:53:00;;;;;;;15.30;10.45;;;4.10;81.10;;;;;;4953254;29;20041;-76
2021/03/11 06:55:26;;;;;;;14.57;9.75;;;4.30;80.30;;;;;;4954220;29;20425;-77
2021/03/11 06:57:52;;;;;;;14.18;9.20;;;4.10;80.30;;;;;;4954262;29;20441;-77
2021/03/11 07:00:20;;;;;;;14.40;8.80;;;4.00;79.40;;;;;;4938483;28;20573;-78
2021/03/11 07:02:54;;;;;;;15.60;10.07;;;4.10;79.40;;;;;;4966575;28;20058;-77
2021/03/11 07:05:22;;;;;;;14.18;9.60;;;4.10;79.10;;;;;;4952545;28;20907;-78
2021/03/11 07:07:48;;;;;;;20.00;13.07;;;4.40;78.10;;;;;;4950267;29;20028;-79
2021/03/11 07:10:25;;;;;;;44.85;27.20;;;4.20;78.40;;;;;;4953245;28;20098;-79
2021/03/11 07:12:56;;;;;;;16.23;10.30;;;4.70;80.80;;;;;;4953786;29;20035;-78
2021/03/11 07:15:24;;;;;;;17.35;9.63;;;4.40;77.90;;;;;;4959402;28;20173;-80
2021/03/11 07:17:51;;;;;;;13.13;9.13;;;4.40;77.20;;;;;;4971206;28;20027;-78
2021/03/11 07:20:18;;;;;;;13.18;9.18;;;4.10;78.20;;;;;;4952391;28;20081;-79
2021/03/11 07:23:11;;;;;;;19.77;10.05;;;4.20;79.30;;;;;;4953442;29;20026;-77
2021/03/11 07:25:41;;;;;;;13.20;9.32;;;4.50;78.70;;;;;;4953328;29;20111;-80
2021/03/11 07:28:09;;;;;;;12.13;9.45;;;4.10;76.50;;;;;;4953528;29;20074;-77
2021/03/11 07:30:51;;;;;;;13.18;8.82;;;4.10;77.00;;;;;;4959555;28;20039;-78
2021/03/11 07:33:23;;;;;;;13.85;9.60;;;4.20;78.20;;;;;;4952163;28;20386;-79
2021/03/11 07:35:50;;;;;;;11.35;8.65;;;4.10;78.50;;;;;;4935326;29;20035;-77
2021/03/11 07:38:18;;;;;;;18.90;8.90;;;4.10;77.70;;;;;;4952234;28;20077;-78
2021/03/11 07:40:48;;;;;;;10.52;7.18;;;3.90;78.40;;;;;;4952653;29;20053;-78
2021/03/11 07:43:15;;;;;;;11.68;7.93;;;3.80;77.90;;;;;;4953388;29;20044;-78
2021/03/11 07:45:42;;;;;;;15.48;9.77;;;4.00;79.10;;;;;;4961083;28;20054;-78
2021/03/11 07:48:10;;;;;;;14.13;10.35;;;4.20;79.20;;;;;;4955086;28;20038;-78
2021/03/11 07:50:36;;;;;;;11.70;8.02;;;4.40;78.70;;;;;;4972076;28;20188;-77
2021/03/11 07:53:04;;;;;;;12.15;9.15;;;4.10;77.50;;;;;;4972446;28;20031;-79
2021/03/11 07:55:30;;;;;;;14.90;9.43;;;4.30;78.50;;;;;;4962831;28;20046;-76
2021/03/11 07:58:10;;;;;;;12.85;8.90;;;4.40;78.70;;;;;;4952791;29;20500;-79
2021/03/11 08:00:36;;;;;;;13.07;9.23;;;4.20;77.90;;;;;;4953479;28;20063;-77
2021/03/11 08:03:06;;;;;;;13.52;9.60;;;4.60;77.20;;;;;;4952626;28;20028;-79
2021/03/11 08:05:33;;;;;;;15.15;9.25;;;4.60;77.20;;;;;;4951175;29;20027;-78
2021/03/11 08:08:15;;;;;;;10.82;8.00;;;4.40;77.00;;;;;;4953002;29;20038;-76
2021/03/11 08:10:45;;;;;;;13.02;8.90;;;4.20;78.00;;;;;;4952165;28;20508;-79
2021/03/11 08:13:31;;;;;;;15.05;9.00;;;4.30;77.60;;;;;;4952856;29;20379;-79
2021/03/11 08:15:58;;;;;;;12.77;9.43;;;4.60;79.20;;;;;;4945758;28;20512;-79
2021/03/11 08:18:33;;;;;;;13.65;8.80;;;4.80;79.00;;;;;;4971561;28;20400;-77
2021/03/11 08:21:06;;;;;;;13.70;9.52;;;5.00;77.90;;;;;;4971761;28;20042;-80
2021/03/11 08:23:35;;;;;;;13.82;9.27;;;4.70;76.60;;;;;;4954588;28;20102;-79
2021/03/11 08:26:02;;;;;;;12.23;8.85;;;4.80;78.40;;;;;;4971669;28;20031;-77
2021/03/11 08:28:28;;;;;;;13.88;9.13;;;4.60;79.60;;;;;;4970835;28;20130;-78
2021/03/11 08:31:03;;;;;;;12.75;8.18;;;4.60;80.50;;;;;;4942823;28;20027;-78
2021/03/11 08:33:29;;;;;;;12.82;8.00;;;4.90;79.90;;;;;;4950010;28;20481;-78
2021/03/11 08:35:58;;;;;;;10.63;7.70;;;5.20;78.50;;;;;;4975413;28;20046;-78
2021/03/11 08:38:24;;;;;;;13.07;9.05;;;5.40;78.10;;;;;;4975596;28;20085;-78
2021/03/11 08:41:10;;;;;;;12.60;8.73;;;5.70;77.90;;;;;;4975256;28;20023;-76
2021/03/11 08:46:05;;;;;;;12.77;7.82;;;6.20;75.10;;;;;;4974704;28;20117;-78
2021/03/11 08:48:46;;;;;;;11.38;8.25;;;6.60;74.00;;;;;;4975914;28;20117;-78
2021/03/11 08:51:18;;;;;;;12.25;8.32;;;6.60;72.70;;;;;;4975191;28;20027;-79
2021/03/11 08:53:49;;;;;;;10.48;7.80;;;7.20;71.50;;;;;;4957552;28;20034;-77
2021/03/11 08:56:18;;;;;;;10.07;7.22;;;7.40;70.30;;;;;;4969042;28;20030;-79
2021/03/11 08:59:00;;;;;;;16.02;8.38;;;7.00;69.30;;;;;;4975325;28;20042;-76
2021/03/11 09:01:40;;;;;;;11.68;7.35;;;7.00;70.00;;;;;;4974156;28;20049;-79
2021/03/11 09:04:21;;;;;;;8.65;6.82;;;7.60;68.10;;;;;;4975154;28;20098;-76
2021/03/11 09:06:58;;;;;;;10.25;7.13;;;7.80;66.80;;;;;;4974839;28;20033;-76
2021/03/11 09:09:49;;;;;;;10.93;7.65;;;8.20;66.00;;;;;;4974635;28;20096;-76
2021/03/11 09:12:16;;;;;;;;;;;8.20;65.20;;;;;;4974866;28;20027;-76
2021/03/11 09:14:46;;;;;;;17.30;8.95;;;7.40;67.10;;;;;;4960224;28;20063;-77
2021/03/11 09:17:14;;;;;;;11.95;8.25;;;7.40;66.70;;;;;;4972798;28;20058;-76
2021/03/11 09:19:44;;;;;;;12.13;8.57;;;8.20;65.40;;;;;;4957347;28;20089;-77
2021/03/11 09:22:25;;;;;;;11.52;7.60;;;8.50;64.40;;;;;;4966142;28;20592;-77
2021/03/11 09:24:55;;;;;;;10.68;7.47;;;7.50;65.20;;;;;;4937423;28;20041;-77
2021/03/11 09:27:21;;;;;;;9.73;7.88;;;8.00;64.40;;;;;;4972276;28;20033;-77
2021/03/11 09:29:50;;;;;;;11.45;8.27;;;7.70;65.20;;;;;;4971894;28;20031;-77
2021/03/11 09:32:16;;;;;;;10.07;8.05;;;8.30;63.10;;;;;;4954975;29;20114;-79
2021/03/11 09:35:10;;;;;;;14.07;8.75;;;7.10;66.20;;;;;;4955167;29;20087;-77
2021/03/11 09:37:51;;;;;;;11.18;8.80;;;8.30;64.90;;;;;;4933742;29;20043;-75
2021/03/11 09:41:03;;;;;;;11.20;8.38;;;8.00;63.30;;;;;;4937829;29;20039;-77
2021/03/11 09:43:36;;;;;;;14.98;8.18;;;7.50;64.80;;;;;;4950837;28;20035;-79
2021/03/11 09:46:20;;;;;;;9.95;7.90;;;7.70;65.80;;;;;;4963817;28;20404;-79
2021/03/11 09:48:50;;;;;;;11.10;8.02;;;8.50;63.90;;;;;;4973394;28;20459;-76
2021/03/11 09:51:26;;;;;;;11.48;7.82;;;8.60;64.70;;;;;;4974276;28;20050;-77
2021/03/11 09:54:05;;;;;;;11.70;8.35;;;8.00;64.00;;;;;;4973865;28;20060;-77
2021/03/11 09:56:32;;;;;;;13.05;7.97;;;9.10;62.20;;;;;;4973745;28;20031;-79
2021/03/11 09:58:59;;;;;;;15.13;7.53;;;9.70;60.70;;;;;;4971432;28;20432;-77
2021/03/11 10:01:38;;;;;;;11.30;8.35;;;9.10;59.60;;;;;;4967566;28;20118;-78
2021/03/11 10:04:28;;;;;;;12.05;7.72;;;8.80;61.10;;;;;;4952874;29;20103;-78
2021/03/11 10:07:13;;;;;;;11.00;8.18;;;9.40;60.10;;;;;;4951570;28;20612;-79
2021/03/11 10:09:43;;;;;;;11.30;8.23;;;9.80;58.80;;;;;;4970897;28;20045;-78
2021/03/11 10:12:09;;;;;;;11.52;8.48;;;9.60;59.60;;;;;;4968309;28;20109;-79
2021/03/11 10:14:35;;;;;;;12.18;7.55;;;9.80;57.90;;;;;;4942956;29;20039;-78
2021/03/11 10:17:05;;;;;;;14.10;8.05;;;9.60;58.30;;;;;;4961878;28;20023;-77
2021/03/11 10:19:34;;;;;;;8.93;6.10;;;10.10;58.60;;;;;;4973150;28;20039;-76
2021/03/11 10:22:16;;;;;;;7.32;5.18;;;9.90;57.90;;;;;;4954385;28;20085;-77
2021/03/11 10:24:51;;;;;;;6.93;5.63;;;9.50;56.70;;;;;;4973594;28;20026;-78
2021/03/11 10:27:23;;;;;;;8.38;4.82;;;9.30;57.70;;;;;;4972502;28;20094;-78
2021/03/11 10:30:06;;;;;;;7.30;5.25;;;9.10;57.60;;;;;;4971622;28;20547;-77
2021/03/11 10:32:34;;;;;;;9.20;5.57;;;9.20;57.80;;;;;;4969885;28;20042;-79
2021/03/11 10:34:59;;;;;;;7.90;5.05;;;9.70;57.00;;;;;;4956595;28;20035;-77
2021/03/11 10:37:31;;;;;;;7.68;5.07;;;10.10;56.50;;;;;;4960072;28;20034;-76
2021/03/11 10:39:59;;;;;;;6.57;4.82;;;10.10;56.00;;;;;;4969754;28;20054;-78
2021/03/11 10:42:42;;;;;;;8.55;4.57;;;9.80;55.70;;;;;;4972752;28;20109;-77
2021/03/11 10:45:10;;;;;;;6.93;5.10;;;9.30;55.40;;;;;;4972353;28;20047;-75
2021/03/11 10:47:36;;;;;;;6.38;4.47;;;8.90;55.60;;;;;;4972228;28;20031;-79
2021/03/11 10:50:02;;;;;;;6.50;4.50;;;8.90;56.60;;;;;;4966747;28;20115;-76
2021/03/11 10:52:28;;;;;;;7.75;5.13;;;9.00;57.00;;;;;;4960793;28;20190;-79
2021/03/11 10:54:54;;;;;;;6.53;4.65;;;9.10;56.50;;;;;;4959002;28;20031;-77
2021/03/11 10:57:22;;;;;;;7.65;5.22;;;9.30;56.60;;;;;;4960823;28;20015;-78
2021/03/11 10:59:59;;;;;;;8.02;5.15;;;9.30;56.20;;;;;;4960972;28;20050;-79
2021/03/11 11:02:29;;;;;;;8.63;5.32;;;9.30;55.90;;;;;;4957825;28;20031;-78
2021/03/11 11:05:00;;;;;;;8.55;6.05;;;9.10;55.80;;;;;;4953813;29;20039;-77
2021/03/11 11:07:26;;;;;;;12.00;6.28;;;8.80;56.30;;;;;;4959646;28;20066;-78
2021/03/11 11:09:53;;;;;;;8.35;6.90;;;8.40;57.80;;;;;;4954647;28;20093;-78
2021/03/11 11:12:21;;;;;;;7.38;5.68;;;8.60;57.60;;;;;;4970793;28;20504;-77
2021/03/11 11:14:48;;;;;;;8.65;5.53;;;8.60;56.70;;;;;;4965690;28;20030;-77
2021/03/11 11:17:15;;;;;;;9.38;5.93;;;8.50;58.20;;;;;;4954880;28;20061;-76
2021/03/11 11:19:41;;;;;;;8.55;5.78;;;8.30;58.20;;;;;;4955063;28;20050;-77
2021/03/11 11:22:08;;;;;;;9.23;6.57;;;8.50;57.90;;;;;;4954687;28;20027;-76
2021/03/11 11:24:35;;;;;;;8.23;5.72;;;8.80;57.10;;;;;;4962430;28;20023;-76
2021/03/11 11:27:01;;;;;;;8.23;5.97;;;8.70;56.80;;;;;;4971886;28;20026;-75
2021/03/11 11:29:27;;;;;;;8.07;5.57;;;9.00;56.50;;;;;;4970305;28;20047;-75
2021/03/11 11:31:53;;;;;;;8.80;5.90;;;8.90;56.90;;;;;;4971867;28;20555;-76
2021/03/11 11:34:19;;;;;;;7.38;5.75;;;8.70;57.20;;;;;;4957633;28;20031;-77
2021/03/11 11:36:48;;;;;;;8.13;6.35;;;8.40;57.90;;;;;;4972084;28;20027;-76
2021/03/11 11:39:14;;;;;;;9.88;6.38;;;8.70;58.10;;;;;;4970810;28;20081;-77
2021/03/11 11:41:41;;;;;;;9.57;6.40;;;8.70;58.00;;;;;;4972177;28;20019;-75
2021/03/11 11:44:08;;;;;;;8.82;7.20;;;8.90;57.60;;;;;;4971159;28;20086;-76
2021/03/11 11:46:34;;;;;;;9.85;7.03;;;9.00;57.30;;;;;;4971585;28;20034;-76
2021/03/11 11:49:01;;;;;;;11.48;7.57;;;9.10;57.60;;;;;;4972088;28;20491;-76
2021/03/11 11:51:27;;;;;;;8.95;6.75;;;8.80;57.60;;;;;;4968076;28;20062;-76
2021/03/11 11:53:53;;;;;;;11.85;7.50;;;8.80;57.10;;;;;;4957549;28;20331;-76
2021/03/11 11:56:19;;;;;;;9.90;7.13;;;9.20;57.50;;;;;;4951368;28;20027;-77
2021/03/11 11:58:46;;;;;;;10.38;6.38;;;9.70;56.70;;;;;;4963369;28;20027;-75
2021/03/11 12:01:17;;;;;;;11.65;7.90;;;10.10;56.50;;;;;;4962346;28;20038;-76
2021/03/11 12:03:43;;;;;;;10.18;7.05;;;10.20;55.80;;;;;;4966691;28;20041;-76
2021/03/11 12:06:09;;;;;;;10.27;7.53;;;10.40;54.70;;;;;;4971060;28;20536;-76
2021/03/11 12:08:36;;;;;;;10.90;7.20;;;9.00;56.30;;;;;;4963686;28;20039;-76
2021/03/11 12:11:02;;;;;;;10.65;7.40;;;9.40;58.60;;;;;;4960969;28;20027;-76
2021/03/11 12:13:28;;;;;;;9.48;7.00;;;10.70;56.60;;;;;;4944030;28;20484;-77
2021/03/11 12:15:54;;;;;;;12.77;7.28;;;10.80;55.10;;;;;;4968158;28;20068;-77
2021/03/11 12:18:19;;;;;;;11.80;7.38;;;11.30;54.40;;;;;;4971550;28;20035;-76
2021/03/11 12:20:45;;;;;;;11.23;7.22;;;11.80;53.10;;;;;;4970369;28;20130;-76
2021/03/11 12:23:11;;;;;;;10.35;6.95;;;12.00;50.90;;;;;;4971137;28;20385;-76
2021/03/11 12:25:38;;;;;;;12.77;6.38;;;11.90;51.60;;;;;;4970875;28;20473;-78
2021/03/11 12:28:04;;;;;;;10.80;7.13;;;12.10;50.70;;;;;;4969259;28;20035;-77
2021/03/11 12:30:31;;;;;;;11.40;7.72;;;12.20;50.30;;;;;;4944030;28;20027;-76
2021/03/11 12:32:57;;;;;;;8.52;6.55;;;12.50;50.20;;;;;;4960300;28;20039;-77
2021/03/11 12:35:26;;;;;;;10.55;6.80;;;13.00;49.80;;;;;;4960450;28;20429;-77
2021/03/11 12:37:53;;;;;;;11.50;7.38;;;13.00;49.10;;;;;;4960549;28;20107;-76
2021/03/11 12:40:19;;;;;;;10.63;7.63;;;11.00;50.80;;;;;;4961612;28;20037;-78
2021/03/11 12:42:49;;;;;;;9.57;7.50;;;10.40;52.40;;;;;;4961488;28;20111;-76
2021/03/11 12:45:17;;;;;;;10.95;6.50;;;10.60;53.40;;;;;;4958281;28;20047;-78
2021/03/11 12:47:43;;;;;;;9.48;6.85;;;11.60;53.60;;;;;;4959375;28;20042;-78
2021/03/11 12:50:11;;;;;;;8.52;5.93;;;12.80;51.50;;;;;;4960114;28;20035;-79
2021/03/11 12:52:46;;;;;;;9.90;6.55;;;13.70;48.90;;;;;;4968063;28;20026;-75
2021/03/11 12:55:12;;;;;;;9.27;6.13;;;14.60;47.50;;;;;;4969453;28;20369;-77
2021/03/11 12:57:38;;;;;;;8.98;6.60;;;16.30;44.80;;;;;;4970429;28;20445;-76